Time;durP1;ratioP1;P1;durP2;ratioP2;P2;SDS_P1;SDS_P2;PMS_P1;PMS_P2;Temp;Humidity;BMP_temperature;BMP_pressure;BME280_temperature;BME280_humidity;BME280_pressure;Samples;Min_cycle;Max_cycle;Signal;HPM_P1;HPM_P2
2022/09/28 00:01:25;;;;;;;3.63;2.45;;;19.90;99.70;;;19.70;68.14;97101.31;5078512;27;20426;-76
2022/09/28 00:03:56;;;;;;;4.95;2.95;;;19.80;99.60;;;19.69;68.05;97097.00;5090394;28;20038;-77
2022/09/28 00:06:23;;;;;;;4.15;2.80;;;19.80;99.60;;;19.72;69.01;97089.97;5090112;28;20084;-77
2022/09/28 00:08:49;;;;;;;7.15;3.47;;;19.80;99.80;;;19.73;69.10;97089.56;5091661;28;20054;-77
2022/09/28 00:11:16;;;;;;;3.60;2.63;;;19.80;99.90;;;19.70;68.74;97084.03;5076112;28;20088;-77
2022/09/28 00:13:42;;;;;;;2.90;2.30;;;19.90;99.70;;;19.70;68.39;97090.31;5077984;28;20043;-77
2022/09/28 00:16:12;;;;;;;4.72;2.78;;;19.80;99.60;;;19.69;68.14;97087.94;5087519;28;20067;-77
2022/09/28 00:18:39;;;;;;;3.63;2.88;;;19.80;99.70;;;19.68;68.21;97089.91;5094377;28;20043;-77
2022/09/28 00:21:16;;;;;;;3.90;2.60;;;19.80;99.60;;;19.65;69.16;97089.84;5095313;28;20058;-77
2022/09/28 00:24:26;;;;;;;4.35;3.03;;;19.80;99.70;;;19.69;69.31;97101.69;5089488;28;20036;-77
2022/09/28 00:26:32;;;;;;;2.97;2.58;;;19.80;99.90;;;19.66;69.63;97092.19;5091962;27;20058;-77
2022/09/28 00:29:00;;;;;;;4.97;2.60;;;19.80;99.90;;;19.67;68.50;97093.81;5097593;27;20040;-77
2022/09/28 00:31:31;;;;;;;3.67;3.05;;;19.80;99.70;;;19.68;68.48;97092.66;5074371;27;20036;-77
2022/09/28 00:33:59;;;;;;;3.95;3.08;;;19.80;99.70;;;19.67;68.33;97104.03;5088387;27;20043;-77
2022/09/28 00:36:29;;;;;;;4.63;3.30;;;19.80;99.60;;;19.66;68.30;97102.41;5094110;27;20126;-77
2022/09/28 00:38:56;;;;;;;4.57;2.80;;;19.80;99.60;;;19.68;69.00;97095.41;5110205;27;20062;-77
2022/09/28 00:41:28;;;;;;;6.00;2.95;;;19.80;99.90;;;19.67;69.41;97093.03;5061944;28;20398;-77
2022/09/28 00:44:36;;;;;;;4.65;2.75;;;19.80;99.90;;;19.65;69.00;97090.63;5077655;27;20046;-77
2022/09/28 00:47:32;;;;;;;3.10;2.63;;;19.70;99.70;;;19.64;68.75;97089.06;5110841;27;20043;-77
2022/09/28 00:50:21;;;;;;;2.70;2.50;;;19.80;99.70;;;19.65;68.55;97092.59;5103080;27;20044;-77
2022/09/28 00:52:54;;;;;;;3.65;3.10;;;19.70;99.60;;;19.61;68.43;97084.28;5082185;27;20082;-77
2022/09/28 00:55:51;;;;;;;4.45;2.80;;;19.70;99.60;;;19.64;69.78;97083.56;5111396;27;20114;-77
2022/09/28 00:58:26;;;;;;;3.67;2.80;;;19.80;99.90;;;19.60;69.89;97087.41;5090701;27;20518;-77
2022/09/28 01:00:58;;;;;;;3.20;2.60;;;19.80;99.90;;;19.58;69.16;97087.78;5095360;27;20058;-77
2022/09/28 01:03:25;;;;;;;3.35;2.45;;;19.70;99.70;;;19.60;69.01;97090.94;5063143;27;20103;-77
2022/09/28 01:05:52;;;;;;;4.10;2.88;;;19.70;99.70;;;19.60;68.87;97092.91;5076985;27;20073;-78
2022/09/28 01:08:20;;;;;;;2.58;2.35;;;19.70;99.70;;;19.59;68.56;97092.13;5078484;27;20047;-78
2022/09/28 01:10:47;;;;;;;4.70;3.40;;;19.70;99.60;;;19.65;69.47;97092.59;5076764;27;20047;-77
2022/09/28 01:13:13;;;;;;;4.70;2.78;;;19.70;99.90;;;19.63;69.58;97090.19;5077377;28;20047;-78
2022/09/28 01:16:22;;;;;;;3.63;2.78;;;19.80;99.90;;;19.61;69.21;97094.50;5074900;27;20039;-77
2022/09/28 01:19:12;;;;;;;5.00;2.50;;;19.70;99.80;;;19.58;69.03;97089.75;5085111;27;20067;-77
2022/09/28 01:22:25;;;;;;;4.40;2.72;;;19.70;99.80;;;19.58;68.60;97096.03;5111577;27;20032;-77
2022/09/28 01:25:40;;;;;;;5.20;2.72;;;19.70;99.70;;;19.58;69.40;97090.53;5121881;27;20147;-77
2022/09/28 01:28:19;;;;;;;4.03;2.63;;;19.70;99.80;;;19.59;69.35;97096.81;5109918;27;20103;-77
2022/09/28 01:31:14;;;;;;;6.25;2.47;;;19.70;99.90;;;19.57;69.71;97093.69;5090094;28;20047;-77
2022/09/28 01:33:49;;;;;;;3.45;2.90;;;19.70;99.90;;;19.55;69.00;97085.00;5090049;28;20155;-77
2022/09/28 01:36:26;;;;;;;4.30;3.25;;;19.60;99.80;;;19.55;69.49;97088.53;5092989;28;20040;-77
2022/09/28 01:39:10;;;;;;;3.58;2.35;;;19.70;99.80;;;19.51;69.12;97090.44;5106879;28;20513;-77
2022/09/28 01:41:37;;;;;;;3.28;2.92;;;19.70;99.80;;;19.53;69.56;97099.13;5090214;28;20501;-77
2022/09/28 01:44:03;;;;;;;5.47;2.90;;;19.70;99.90;;;19.55;69.72;97096.78;5090934;28;20054;-77
2022/09/28 01:46:40;;;;;;;2.72;2.20;;;19.70;99.90;;;19.56;70.10;97105.81;5090391;28;20118;-77
2022/09/28 01:49:18;;;;;;;3.75;2.42;;;19.70;99.90;;;19.55;69.38;97101.50;5096820;28;20441;-77
2022/09/28 01:51:54;;;;;;;2.95;2.42;;;19.70;99.90;;;19.54;69.40;97111.72;5091440;28;20743;-77
2022/09/28 01:54:27;;;;;;;4.18;3.08;;;19.60;99.90;;;19.52;69.16;97103.81;5074582;28;20036;-77
2022/09/28 01:57:01;;;;;;;4.65;2.58;;;19.60;99.80;;;19.51;69.09;97105.00;5094518;28;20071;-77
2022/09/28 01:59:28;;;;;;;4.57;2.90;;;19.60;99.70;;;19.54;69.84;97108.97;5108649;28;20132;-77
2022/09/28 02:01:58;;;;;;;3.63;3.22;;;19.60;99.90;;;19.52;70.10;97103.03;5072825;28;20054;-77
2022/09/28 02:04:39;;;;;;;3.78;2.95;;;19.60;99.90;;;19.52;69.49;97109.31;5074426;28;20512;-77
2022/09/28 02:07:19;;;;;;;3.28;2.90;;;19.70;99.90;;;19.51;69.36;97106.94;5079579;28;20134;-77
2022/09/28 02:10:01;;;;;;;5.13;2.67;;;19.60;99.80;;;19.50;69.28;97102.63;5074987;28;20043;-77
2022/09/28 02:12:34;;;;;;;4.90;2.80;;;19.70;99.70;;;19.51;68.87;97105.00;5088927;28;20235;-77
2022/09/28 02:15:22;;;;;;;4.55;2.10;;;19.70;99.70;;;19.52;69.58;97114.03;5072524;28;20111;-77
2022/09/28 02:17:48;;;;;;;4.45;2.97;;;19.70;99.90;;;19.52;69.66;97111.28;5080153;28;20044;-77
2022/09/28 02:20:15;;;;;;;4.93;2.63;;;19.70;99.90;;;19.49;69.89;97110.09;5088713;28;20070;-77
2022/09/28 02:22:50;;;;;;;3.67;2.58;;;19.70;99.90;;;19.50;69.01;97110.88;5081043;28;20047;-77
2022/09/28 02:25:25;;;;;;;2.88;2.00;;;19.60;99.80;;;19.51;68.91;97118.75;5072768;28;20043;-77
2022/09/28 02:28:01;;;;;;;3.28;2.42;;;19.60;99.80;;;19.50;68.97;97122.66;5104405;28;20040;-77
2022/09/28 02:30:29;;;;;;;4.22;2.35;;;19.70;99.70;;;19.50;69.31;97122.66;5105850;28;20104;-77
2022/09/28 02:33:02;;;;;;;3.30;2.15;;;19.70;99.90;;;19.53;69.85;97124.66;5076531;28;20053;-77
2022/09/28 02:35:28;;;;;;;2.92;2.17;;;19.70;99.90;;;19.54;69.61;97119.97;5061118;28;20036;-77
2022/09/28 02:37:55;;;;;;;3.08;2.40;;;19.60;99.90;;;19.49;69.18;97125.78;5100716;28;20486;-77
2022/09/28 02:40:24;;;;;;;3.05;2.47;;;19.60;99.70;;;19.49;68.98;97129.34;5095061;28;20039;-77
2022/09/28 02:43:24;;;;;;;3.60;2.38;;;19.70;99.70;;;19.49;68.83;97132.09;5076966;28;20040;-77
2022/09/28 02:46:04;;;;;;;2.75;2.40;;;19.60;99.60;;;19.50;69.07;97127.38;5053553;27;20047;-77
2022/09/28 02:49:17;;;;;;;4.55;3.20;;;19.60;99.60;;;19.50;69.84;97127.38;5113151;27;20071;-77
2022/09/28 02:52:11;;;;;;;2.33;2.13;;;19.70;99.90;;;19.52;69.50;97138.78;5110277;27;20084;-77
2022/09/28 02:54:55;;;;;;;2.88;2.30;;;19.60;99.90;;;19.49;68.96;97131.28;5111579;27;20047;-77
2022/09/28 02:57:53;;;;;;;3.22;2.13;;;19.60;99.70;;;19.50;68.62;97138.38;5115034;27;20039;-77
2022/09/28 03:00:21;;;;;;;3.45;2.50;;;19.60;99.60;;;19.47;68.92;97123.41;5096082;27;20048;-77
2022/09/28 03:03:10;;;;;;;2.50;2.30;;;19.60;99.60;;;19.49;69.52;97131.28;5090200;27;20044;-77
2022/09/28 03:05:47;;;;;;;3.47;2.65;;;19.60;99.90;;;19.48;69.52;97121.44;5115709;27;20501;-78
2022/09/28 03:08:47;;;;;;;5.22;2.97;;;19.60;99.90;;;19.48;69.17;97126.94;5108179;27;20044;-77
2022/09/28 03:11:38;;;;;;;3.53;2.53;;;19.60;99.70;;;19.45;68.78;97131.22;5097266;27;20053;-77
2022/09/28 03:14:04;;;;;;;2.70;2.20;;;19.60;99.60;;;19.46;68.65;97132.84;5086514;27;20088;-77
2022/09/28 03:16:31;;;;;;;3.30;2.63;;;19.60;99.60;;;19.45;68.76;97128.47;5077673;28;20078;-77
2022/09/28 03:18:57;;;;;;;2.30;1.92;;;19.60;99.60;;;19.46;69.43;97116.34;5096417;28;20107;-78
2022/09/28 03:21:23;;;;;;;1.85;1.75;;;19.60;99.90;;;19.45;69.49;97122.19;5076035;28;20070;-78
2022/09/28 03:23:50;;;;;;;2.67;2.13;;;19.60;99.90;;;19.48;69.59;97118.69;5075819;28;20048;-77
2022/09/28 03:26:15;;;;;;;4.45;2.65;;;19.60;99.90;;;19.46;69.07;97121.00;5078262;28;20042;-77
2022/09/28 03:28:41;;;;;;;3.13;2.60;;;19.60;99.60;;;19.43;68.94;97132.75;5114794;27;20048;-77
2022/09/28 03:31:08;;;;;;;2.70;1.95;;;19.60;99.60;;;19.44;68.30;97132.41;5077688;28;20036;-77
2022/09/28 03:33:34;;;;;;;2.85;2.20;;;19.60;99.60;;;19.45;68.56;97135.94;5067786;28;20157;-77
2022/09/28 03:36:00;;;;;;;3.33;2.15;;;19.60;99.50;;;19.45;69.75;97133.19;5095723;28;20074;-77
2022/09/28 03:38:26;;;;;;;3.03;2.03;;;19.60;99.90;;;19.47;69.77;97133.63;5110998;27;20032;-77
2022/09/28 03:40:59;;;;;;;1.92;1.80;;;19.60;99.90;;;19.43;69.33;97132.75;5098786;28;20057;-76
2022/09/28 03:43:25;;;;;;;3.42;2.50;;;19.50;99.80;;;19.43;68.91;97130.00;5109114;27;20417;-76
2022/09/28 03:45:59;;;;;;;2.47;1.67;;;19.50;99.70;;;19.40;69.03;97133.50;5093527;28;20097;-76
2022/09/28 03:48:27;;;;;;;2.67;2.05;;;19.50;99.60;;;19.41;68.74;97130.41;5079598;28;20051;-76
2022/09/28 03:50:57;;;;;;;1.83;1.73;;;19.50;99.60;;;19.38;69.69;97136.63;5074679;28;20036;-76
2022/09/28 03:53:23;;;;;;;1.90;1.80;;;19.50;99.80;;;19.37;68.92;97140.56;5074137;28;20402;-76
2022/09/28 03:55:52;;;;;;;2.20;2.00;;;19.50;99.50;;;19.36;68.45;97135.41;5095488;28;20054;-76
2022/09/28 03:58:21;;;;;;;3.70;2.20;;;19.50;99.30;;;19.36;67.79;97143.66;5078982;28;20067;-76
2022/09/28 04:00:48;;;;;;;2.30;2.00;;;19.50;99.20;;;19.37;67.04;97148.00;5095765;28;20085;-76
2022/09/28 04:03:14;;;;;;;4.15;1.80;;;19.50;99.10;;;19.35;68.50;97144.84;5092321;28;20046;-76
2022/09/28 04:05:50;;;;;;;2.17;2.05;;;19.50;99.50;;;19.38;68.75;97138.59;5107580;27;20036;-76
2022/09/28 04:08:17;;;;;;;2.45;2.03;;;19.40;99.60;;;19.35;69.64;97148.38;5094333;27;20044;-76
2022/09/28 04:10:43;;;;;;;3.40;1.88;;;19.40;99.80;;;19.33;67.54;97144.41;5078301;27;20044;-76
2022/09/28 04:13:09;;;;;;;2.50;2.30;;;19.50;99.30;;;19.33;67.36;97155.41;5109070;27;20104;-76
2022/09/28 04:15:37;;;;;;;2.00;1.80;;;19.50;99.20;;;19.29;66.93;97145.16;5103896;27;20453;-76
2022/09/28 04:18:10;;;;;;;3.78;2.00;;;19.40;99.10;;;19.30;66.87;97151.44;5090952;27;20119;-76
2022/09/28 04:20:36;;;;;;;2.78;2.03;;;19.40;99.00;;;19.29;68.78;97145.16;5114002;27;20066;-76
2022/09/28 04:23:02;;;;;;;2.38;2.17;;;19.40;99.50;;;19.30;69.02;97146.72;5109764;27;20720;-76
2022/09/28 04:25:28;;;;;;;2.40;2.05;;;19.40;99.70;;;19.26;69.22;97145.13;5105935;27;20134;-76
2022/09/28 04:30:39;;;;;;;2.83;2.15;;;19.40;99.10;;;19.23;67.24;97149.41;5107321;27;20113;-76
2022/09/28 04:33:05;;;;;;;3.30;1.88;;;19.40;99.00;;;19.23;66.67;97146.66;5090581;28;20054;-76
2022/09/28 04:35:31;;;;;;;2.45;1.88;;;19.40;98.90;;;19.23;68.05;97148.59;5093354;27;20038;-76
2022/09/28 04:37:57;;;;;;;2.13;1.73;;;19.30;99.30;;;19.27;68.83;97143.94;5105331;27;20044;-76
2022/09/28 04:40:23;;;;;;;2.38;1.65;;;19.30;99.60;;;19.27;69.23;97146.69;5089735;27;20043;-77
2022/09/28 04:42:54;;;;;;;3.10;2.08;;;19.30;99.70;;;19.23;67.38;97149.41;5104425;27;20047;-76
2022/09/28 04:45:20;;;;;;;2.42;1.73;;;19.30;99.30;;;19.22;66.84;97147.00;5055772;27;20039;-76
2022/09/28 04:47:46;;;;;;;1.95;1.85;;;19.30;99.10;;;19.18;66.70;97152.44;5105367;27;20061;-76
2022/09/28 04:50:12;;;;;;;2.17;2.03;;;19.20;99.00;;;19.20;66.30;97147.38;5094638;27;20044;-76
2022/09/28 04:52:39;;;;;;;5.05;1.70;;;19.20;98.90;;;19.24;68.11;97148.22;5092259;27;20574;-76
2022/09/28 04:55:05;;;;;;;1.95;1.52;;;19.30;99.50;;;19.25;68.24;97149.00;5103619;27;20035;-76
2022/09/28 04:57:34;;;;;;;2.25;2.00;;;19.30;99.60;;;19.23;68.31;97148.59;5107593;27;20055;-76
2022/09/28 05:00:01;;;;;;;1.80;1.70;;;19.30;99.50;;;19.22;66.50;97149.75;5109539;27;20180;-76
2022/09/28 05:02:28;;;;;;;1.95;1.58;;;19.30;99.00;;;19.22;66.74;97155.25;5105403;28;20048;-76
2022/09/28 05:04:55;;;;;;;1.67;1.58;;;19.30;98.90;;;19.26;66.79;97161.63;5107410;27;20048;-76
2022/09/28 05:07:21;;;;;;;1.77;1.55;;;19.30;99.10;;;19.22;66.61;97153.31;5102719;27;20032;-76
2022/09/28 05:09:47;;;;;;;3.38;2.15;;;19.30;99.00;;;19.27;67.91;97166.72;5075200;27;20047;-76
2022/09/28 05:12:13;;;;;;;2.20;1.63;;;19.30;99.40;;;19.25;68.31;97155.31;5089270;28;20038;-76
2022/09/28 05:14:40;;;;;;;2.30;1.67;;;19.30;99.50;;;19.23;66.82;97156.84;5083146;27;20036;-76
2022/09/28 05:17:06;;;;;;;3.03;1.90;;;19.30;99.10;;;19.22;66.15;97149.75;5106926;27;20046;-76
2022/09/28 05:19:33;;;;;;;5.03;1.70;;;19.30;98.90;;;19.21;65.98;97151.72;5107650;27;20048;-76
2022/09/28 05:22:03;;;;;;;1.88;1.33;;;19.20;98.80;;;19.20;65.89;97152.09;5090963;28;20050;-76
2022/09/28 05:24:29;;;;;;;1.50;1.40;;;19.30;98.80;;;19.24;66.94;97150.97;5106578;27;20060;-76
2022/09/28 05:26:56;;;;;;;2.17;1.63;;;19.30;99.20;;;19.27;67.43;97147.47;5085961;28;20480;-76
2022/09/28 05:29:22;;;;;;;1.60;1.50;;;19.30;99.30;;;19.23;67.77;97141.16;5097097;27;20056;-76
2022/09/28 05:31:48;;;;;;;1.75;1.65;;;19.30;99.40;;;19.22;65.79;97141.53;5092124;28;20136;-76
2022/09/28 05:34:14;;;;;;;2.05;1.85;;;19.20;98.80;;;19.23;65.42;97149.41;5106696;27;20426;-77
2022/09/28 05:36:41;;;;;;;3.15;1.85;;;19.20;98.80;;;19.25;65.12;97144.31;5098037;27;20551;-77
2022/09/28 05:39:08;;;;;;;2.33;1.42;;;19.20;98.70;;;19.25;64.76;97149.81;5061963;28;20043;-77
2022/09/28 05:41:34;;;;;;;1.55;1.45;;;19.20;98.60;;;19.29;66.33;97155.38;5081897;28;20044;-77
2022/09/28 05:44:00;;;;;;;3.20;1.63;;;19.20;99.10;;;19.28;66.57;97153.75;5084174;28;20032;-78
2022/09/28 05:46:26;;;;;;;1.20;1.20;;;19.30;99.20;;;19.28;66.22;97154.59;5081004;28;20043;-78
2022/09/28 05:48:53;;;;;;;6.25;2.08;;;19.30;99.00;;;19.26;65.11;97159.66;5104562;28;20054;-78
2022/09/28 05:51:20;;;;;;;1.60;1.35;;;19.30;98.60;;;19.20;65.31;97163.09;5100893;28;20524;-78
2022/09/28 05:53:46;;;;;;;2.53;1.63;;;19.20;98.70;;;19.23;65.57;97167.81;5084082;28;20055;-77
2022/09/28 05:56:12;;;;;;;1.42;1.33;;;19.20;98.80;;;19.22;65.61;97156.06;5104203;28;20048;-77
2022/09/28 05:58:38;;;;;;;1.45;1.20;;;19.20;98.70;;;19.20;66.02;97158.38;5091021;28;20565;-77
2022/09/28 06:01:07;;;;;;;1.98;1.42;;;19.20;98.80;;;19.24;65.53;97159.22;5108352;28;20048;-77
2022/09/28 06:03:34;;;;;;;1.80;1.70;;;19.20;98.80;;;19.24;66.34;97164.72;5083880;28;20113;-78
2022/09/28 06:06:01;;;;;;;1.48;1.25;;;19.20;99.00;;;19.24;66.75;97161.97;5103647;27;20451;-78
2022/09/28 06:08:27;;;;;;;4.15;1.58;;;19.30;99.20;;;19.27;66.69;97163.19;5078069;28;20067;-78
2022/09/28 06:10:53;;;;;;;1.65;1.40;;;19.30;99.20;;;19.30;65.65;97163.22;5075086;28;20061;-78
2022/09/28 06:13:19;;;;;;;1.20;1.10;;;19.30;98.90;;;19.34;65.32;97163.28;5051675;28;20048;-78
2022/09/28 06:15:45;;;;;;;2.33;2.00;;;19.30;98.90;;;19.36;64.95;97166.47;5107296;27;20352;-78
2022/09/28 06:18:15;;;;;;;1.70;1.48;;;19.30;98.80;;;19.37;65.25;97161.75;5078366;27;20085;-78
2022/09/28 06:20:44;;;;;;;2.97;1.60;;;19.30;98.80;;;19.42;65.67;97170.47;5074391;28;20114;-78
2022/09/28 06:23:11;;;;;;;3.53;1.83;;;19.30;99.10;;;19.44;65.47;97172.88;5102509;27;20035;-78
2022/09/28 06:25:38;;;;;;;1.30;1.20;;;19.40;99.00;;;19.38;65.49;97180.63;5077938;28;20138;-78
2022/09/28 06:28:08;;;;;;;1.30;1.20;;;19.30;98.90;;;19.35;65.46;97175.06;5093956;28;20127;-78
2022/09/28 06:30:35;;;;;;;1.42;1.33;;;19.30;98.80;;;19.32;65.54;97171.13;5089492;28;20047;-78
2022/09/28 06:33:01;;;;;;;1.30;1.23;;;19.40;98.90;;;19.33;65.27;97172.69;5093213;28;20197;-78
2022/09/28 06:35:29;;;;;;;1.50;1.38;;;19.30;98.80;;;19.34;65.83;97174.28;5066295;28;20488;-78
2022/09/28 06:37:55;;;;;;;3.45;1.73;;;19.40;99.00;;;19.39;65.91;97162.19;5088110;28;20062;-78
2022/09/28 06:40:21;;;;;;;1.45;1.35;;;19.40;99.10;;;19.38;66.19;97169.63;5073447;28;20036;-78
2022/09/28 06:42:59;;;;;;;1.73;1.25;;;19.40;99.10;;;19.39;65.62;97159.44;5106820;27;20614;-78
2022/09/28 06:45:26;;;;;;;4.38;1.48;;;19.40;98.90;;;19.40;65.34;97161.00;5075736;28;20047;-78
2022/09/28 06:47:56;;;;;;;4.30;1.83;;;19.40;98.80;;;19.43;64.90;97160.25;5055822;28;20051;-78
2022/09/28 06:50:26;;;;;;;2.90;1.35;;;19.40;98.80;;;19.46;64.63;97145.75;5065154;28;20040;-78
2022/09/28 06:52:53;;;;;;;3.67;1.60;;;19.40;98.70;;;19.44;65.39;97146.16;5067252;28;20051;-78
2022/09/28 06:55:20;;;;;;;3.22;1.45;;;19.40;98.90;;;19.46;65.77;97154.00;5069359;28;20040;-78
2022/09/28 06:57:46;;;;;;;2.70;1.70;;;19.40;99.00;;;19.46;65.46;97148.50;5055904;28;20040;-78
2022/09/28 07:00:13;;;;;;;2.97;1.52;;;19.40;98.80;;;19.45;64.92;97161.47;5070770;28;20087;-78
2022/09/28 07:02:39;;;;;;;1.40;1.30;;;19.50;98.80;;;19.45;64.95;97160.69;5037192;28;20067;-78
2022/09/28 07:05:08;;;;;;;1.75;1.60;;;19.40;98.70;;;19.49;64.60;97170.56;5069526;28;20040;-78
2022/09/28 07:07:34;;;;;;;1.85;1.08;;;19.50;98.70;;;19.56;64.31;97158.88;5066803;28;20043;-78
2022/09/28 07:10:00;;;;;;;1.73;1.38;;;19.50;98.70;;;19.58;64.82;97164.00;5053365;28;20044;-78
2022/09/28 07:12:26;;;;;;;1.02;1.02;;;19.50;98.80;;;19.59;64.72;97160.88;5084005;28;20040;-78
2022/09/28 07:14:56;;;;;;;1.58;1.48;;;19.50;98.80;;;19.56;64.41;97164.38;5086683;28;20137;-77
2022/09/28 07:17:22;;;;;;;1.67;1.58;;;19.60;98.60;;;19.56;64.23;97158.06;5083764;28;20127;-78
2022/09/28 07:19:51;;;;;;;2.05;1.67;;;19.60;98.60;;;19.57;64.24;97163.22;5066984;28;20519;-78
2022/09/28 07:22:18;;;;;;;1.30;1.17;;;19.60;98.50;;;19.57;63.95;97156.94;5066985;28;20035;-78
2022/09/28 07:24:46;;;;;;;2.25;1.65;;;19.60;98.50;;;19.58;64.60;97156.53;5049978;28;20482;-78
2022/09/28 07:27:12;;;;;;;2.25;1.98;;;19.60;98.60;;;19.58;64.52;97151.03;5067789;28;20623;-78
2022/09/28 07:29:38;;;;;;;1.88;1.48;;;19.60;98.60;;;19.57;64.48;97157.72;5065502;28;20149;-78
2022/09/28 07:32:04;;;;;;;1.27;1.10;;;19.60;98.60;;;19.55;64.24;97157.28;5066093;28;20044;-78
2022/09/28 07:34:30;;;;;;;1.40;1.30;;;19.60;98.50;;;19.57;64.19;97156.94;5051811;28;20058;-78
2022/09/28 07:36:58;;;;;;;1.35;1.23;;;19.60;98.50;;;19.61;63.82;97160.50;5086431;28;20538;-78
2022/09/28 07:39:24;;;;;;;1.60;1.38;;;19.60;98.40;;;19.60;63.66;97161.69;5052053;28;20054;-78
2022/09/28 07:41:50;;;;;;;2.05;1.67;;;19.70;98.40;;;19.67;63.83;97157.09;5063441;28;20485;-78
2022/09/28 07:44:17;;;;;;;0.70;0.70;;;19.70;98.50;;;19.70;63.43;97169.31;5083593;28;20487;-80
2022/09/28 07:46:44;;;;;;;1.17;1.08;;;19.70;98.40;;;19.71;63.18;97159.88;5080295;28;20072;-77
2022/09/28 07:49:11;;;;;;;1.75;1.58;;;19.70;98.30;;;19.76;62.96;97167.00;5085199;28;20081;-77
2022/09/28 07:51:37;;;;;;;1.33;1.23;;;19.70;98.30;;;19.76;62.67;97167.00;5084930;28;20551;-77
2022/09/28 07:54:06;;;;;;;3.55;1.55;;;19.70;98.30;;;19.75;62.42;97155.22;5085689;28;20040;-77
2022/09/28 07:56:33;;;;;;;1.08;0.90;;;19.70;98.20;;;19.77;62.79;97163.91;5069358;28;20565;-77
2022/09/28 07:58:59;;;;;;;3.83;1.90;;;19.70;98.30;;;19.76;63.04;97156.00;5079337;28;20067;-77
2022/09/28 08:01:26;;;;;;;1.30;1.20;;;19.70;98.30;;;19.73;63.37;97155.59;5024182;28;1125749;-77
2022/09/28 08:03:55;;;;;;;3.15;1.38;;;19.80;98.30;;;19.72;62.88;97162.25;5071307;28;20506;-77
2022/09/28 08:06:20;;;;;;;1.77;1.55;;;19.80;98.20;;;19.71;62.98;97170.88;5064106;28;20400;-77
2022/09/28 08:08:48;;;;;;;1.15;1.05;;;19.80;98.20;;;19.72;62.75;97159.50;5081420;28;20146;-77
2022/09/28 08:11:15;;;;;;;2.28;1.63;;;19.80;98.10;;;19.71;62.82;97163.41;5069288;28;20516;-77
2022/09/28 08:13:42;;;;;;;5.80;1.58;;;19.80;98.10;;;19.75;62.73;97160.72;5065830;28;20135;-77
2022/09/28 08:16:10;;;;;;;1.25;1.15;;;19.80;98.10;;;19.77;62.68;97160.34;5065986;28;20051;-77
2022/09/28 08:18:36;;;;;;;2.08;1.48;;;19.80;98.20;;;19.79;62.69;97158.00;5065196;28;20566;-77
2022/09/28 08:23:48;;;;;;;1.63;1.10;;;19.90;98.10;;;19.81;62.51;97158.44;5070118;28;20152;-77
2022/09/28 08:26:14;;;;;;;2.88;1.42;;;19.90;98.00;;;19.81;62.12;97153.72;5081781;28;20055;-77
2022/09/28 08:28:42;;;;;;;1.40;1.17;;;19.90;98.00;;;19.84;62.07;97155.72;5063157;28;20407;-77
2022/09/28 08:31:11;;;;;;;3.78;1.88;;;19.90;98.00;;;19.87;62.05;97154.16;5082683;28;20138;-77
2022/09/28 08:33:37;;;;;;;3.00;1.90;;;19.90;98.10;;;19.87;62.39;97157.72;5086618;28;20063;-77
2022/09/28 08:36:04;;;;;;;1.40;1.30;;;19.90;98.10;;;19.86;62.01;97158.88;5079556;28;20043;-77
2022/09/28 08:38:30;;;;;;;1.15;1.02;;;19.90;97.80;;;19.85;61.99;97146.31;5062018;28;20040;-77
2022/09/28 08:40:56;;;;;;;2.53;1.60;;;20.00;97.90;;;19.90;61.49;97145.97;5064373;28;20075;-77
2022/09/28 08:44:00;;;;;;;4.50;1.38;;;20.00;97.80;;;19.98;61.15;97141.34;5082507;28;20036;-77
2022/09/28 08:46:32;;;;;;;1.50;1.35;;;20.00;97.80;;;20.02;61.36;97138.63;5086070;28;20088;-77
2022/09/28 08:49:05;;;;;;;1.70;1.50;;;20.00;97.90;;;20.05;61.37;97133.16;5064290;28;20046;-77
2022/09/28 08:51:49;;;;;;;4.43;1.13;;;20.00;97.90;;;20.04;61.21;97130.78;5051187;28;20041;-77
2022/09/28 08:54:55;;;;;;;2.53;1.63;;;20.00;97.80;;;20.03;61.00;97140.22;5078405;28;20505;-77
2022/09/28 08:57:36;;;;;;;3.78;1.52;;;20.00;97.70;;;20.01;61.02;97139.78;5089008;27;20574;-77
2022/09/28 09:00:03;;;;;;;3.20;2.05;;;20.00;97.70;;;20.06;60.38;97143.00;5067001;28;20104;-77
2022/09/28 09:02:35;;;;;;;1.10;1.00;;;20.00;97.60;;;20.11;60.68;97142.66;5069726;28;20043;-77
2022/09/28 09:05:06;;;;;;;;;;;20.00;97.70;;;20.15;60.47;97134.47;5064798;28;20044;-77
2022/09/28 09:07:44;;;;;;;2.08;1.25;;;20.10;97.70;;;20.15;60.41;97139.97;5085096;28;20897;-77
2022/09/28 09:10:35;;;;;;;6.88;1.73;;;20.10;97.70;;;20.12;60.18;97138.75;5065989;28;20040;-77
2022/09/28 09:13:23;;;;;;;5.80;1.27;;;20.10;97.70;;;20.16;60.26;97147.03;5076169;28;20050;-77
2022/09/28 09:16:31;;;;;;;2.50;1.58;;;20.10;97.60;;;20.15;59.81;97149.00;5098362;28;20113;-77
2022/09/28 09:19:28;;;;;;;1.80;1.27;;;20.10;97.50;;;20.15;60.22;97154.50;5068677;28;20047;-77
2022/09/28 09:22:04;;;;;;;4.90;1.33;;;20.10;97.60;;;20.17;60.28;97162.38;5094661;28;20048;-77
2022/09/28 09:24:36;;;;;;;1.70;1.48;;;20.20;97.70;;;20.09;60.41;97158.75;5068506;28;20063;-77
2022/09/28 09:27:31;;;;;;;3.15;1.40;;;20.20;97.50;;;20.11;60.31;97167.44;5083819;28;20043;-77
2022/09/28 09:30:18;;;;;;;2.03;1.38;;;20.20;97.40;;;20.17;59.95;97151.38;5082282;28;20067;-77
2022/09/28 09:33:27;;;;;;;4.15;1.20;;;20.20;97.40;;;20.13;60.25;97154.09;5052424;28;20044;-77
2022/09/28 09:36:02;;;;;;;1.08;0.98;;;20.20;97.30;;;20.17;59.89;97148.63;5093369;28;20119;-77
2022/09/28 09:38:44;;;;;;;1.75;1.38;;;20.20;97.40;;;20.13;60.41;97147.81;5095179;28;20040;-77
2022/09/28 09:41:34;;;;;;;1.35;0.93;;;20.20;97.50;;;20.14;59.95;97157.63;5079699;27;20546;-77
2022/09/28 09:44:25;;;;;;;0.95;0.95;;;20.20;97.30;;;20.14;59.90;97158.41;5095438;28;20044;-77
2022/09/28 09:47:03;;;;;;;1.50;1.23;;;20.30;97.30;;;20.13;59.81;97161.56;5098215;28;20113;-77
2022/09/28 09:50:05;;;;;;;1.42;1.20;;;20.30;97.20;;;20.14;59.87;97152.91;5066991;28;20043;-77
2022/09/28 09:52:37;;;;;;;;;;;20.30;97.20;;;20.18;60.03;97150.22;5089599;28;20058;-77
2022/09/28 09:55:24;;;;;;;0.85;0.85;;;20.30;97.20;;;20.15;60.01;97146.25;5076607;28;19931;-77
2022/09/28 09:58:25;;;;;;;1.20;1.10;;;20.30;97.20;;;20.17;59.59;97138.41;5098776;28;20131;-77
2022/09/28 10:00:53;;;;;;;2.22;0.93;;;20.30;97.10;;;20.19;59.46;97140.00;5079774;28;20152;-77
2022/09/28 10:03:25;;;;;;;1.45;1.20;;;20.30;97.10;;;20.16;59.74;97130.53;5065527;28;20119;-77
2022/09/28 10:06:26;;;;;;;2.22;1.38;;;20.30;97.00;;;20.15;59.79;97143.50;5075522;28;20097;-77
2022/09/28 10:09:02;;;;;;;2.25;1.55;;;20.40;97.00;;;20.16;60.00;97142.31;5071550;28;20051;-77
2022/09/28 10:11:43;;;;;;;5.53;1.75;;;20.30;97.10;;;20.19;59.59;97134.47;5065653;28;20074;-77
2022/09/28 10:14:20;;;;;;;4.28;1.20;;;20.40;97.10;;;20.15;59.59;97138.00;5080877;28;20119;-77
2022/09/28 10:16:48;;;;;;;1.83;1.23;;;20.40;97.00;;;20.15;59.41;97132.50;5078085;28;20551;-77
2022/09/28 10:19:16;;;;;;;0.82;0.82;;;20.40;97.00;;;20.17;59.49;97143.09;5066216;28;20479;-77
2022/09/28 10:21:42;;;;;;;5.78;2.78;;;20.40;97.00;;;20.22;59.25;97140.00;5082211;28;20054;-77
2022/09/28 10:24:17;;;;;;;2.47;1.38;;;20.40;96.90;;;20.20;59.50;97133.31;5064602;28;20417;-77
2022/09/28 10:26:47;;;;;;;1.85;1.20;;;20.40;97.00;;;20.22;59.64;97136.47;5084071;28;20400;-77
2022/09/28 10:29:24;;;;;;;2.25;1.30;;;20.40;97.00;;;20.20;59.62;97136.06;5080388;28;20040;-76
2022/09/28 10:31:52;;;;;;;1.40;0.90;;;20.40;97.30;;;20.27;59.11;97130.63;5069394;28;20735;-77
2022/09/28 10:34:28;;;;;;;3.13;1.48;;;20.40;97.00;;;20.27;59.03;97130.63;5065505;28;20052;-77
2022/09/28 10:37:01;;;;;;;1.42;1.00;;;20.40;96.90;;;20.25;59.16;97128.28;5052417;28;20044;-77
2022/09/28 10:39:35;;;;;;;2.22;1.40;;;20.40;96.90;;;20.29;59.63;97129.06;5068641;28;20050;-76
2022/09/28 10:42:12;;;;;;;1.27;0.95;;;20.40;97.30;;;20.35;58.95;97118.50;5098705;28;20047;-76
2022/09/28 10:44:56;;;;;;;3.88;1.10;;;20.40;97.10;;;20.39;58.92;97130.34;5084525;28;20410;-76
2022/09/28 10:47:25;;;;;;;3.13;1.13;;;20.40;97.00;;;20.36;58.69;97117.34;5095556;28;20040;-77
2022/09/28 10:49:52;;;;;;;3.10;1.30;;;20.40;96.90;;;20.41;58.44;97119.75;5056807;28;20047;-77